Time;durP1;ratioP1;P1;durP2;ratioP2;P2;SDS_P1;SDS_P2;PMS_P1;PMS_P2;Temp;Humidity;BMP_temperature;BMP_pressure;BME280_temperature;BME280_humidity;BME280_pressure;Samples;Min_cycle;Max_cycle;Signal;HPM_P1;HPM_P2
2022/05/03 00:01:03;;;;;;;5.97;3.90;;;;;;;10.87;46.37;100859.59;5032697;28;20049;-57
2022/05/03 00:03:35;;;;;;;6.70;3.60;;;;;;;10.88;46.59;100856.13;5032848;28;20053;-57
2022/05/03 00:06:13;;;;;;;7.45;3.53;;;;;;;10.86;47.03;100852.69;5033156;28;20057;-58
2022/05/03 00:08:49;;;;;;;6.32;3.47;;;;;;;10.83;47.17;100847.53;5031806;28;20429;-58
2022/05/03 00:11:25;;;;;;;7.13;3.85;;;;;;;10.80;47.00;100842.38;5032765;28;20072;-57
2022/05/03 00:14:02;;;;;;;7.18;3.95;;;;;;;10.80;46.95;100845.81;5051007;28;20053;-59
2022/05/03 00:16:29;;;;;;;6.15;3.88;;;;;;;10.81;47.16;100842.38;5051886;28;20348;-58
2022/05/03 00:18:57;;;;;;;8.80;4.45;;;;;;;10.80;47.44;100842.38;5051156;28;20509;-58
2022/05/03 00:21:25;;;;;;;6.70;3.40;;;;;;;10.78;47.74;100834.59;5050980;28;20049;-57
2022/05/03 00:23:52;;;;;;;5.30;3.35;;;;;;;10.78;48.24;100838.94;5062208;28;20354;-59
2022/05/03 00:26:19;;;;;;;5.45;3.20;;;;;;;10.77;48.17;100835.47;5072905;28;20053;-58
2022/05/03 00:28:46;;;;;;;6.53;3.20;;;;;;;10.78;48.08;100828.56;5072407;28;20432;-58
2022/05/03 00:31:15;;;;;;;5.93;3.40;;;;;;;10.77;48.18;100822.50;5071371;28;20048;-58
2022/05/03 00:33:43;;;;;;;6.53;3.42;;;;;;;10.79;48.36;100833.72;5086790;28;20075;-58
2022/05/03 00:36:09;;;;;;;9.63;4.07;;;;;;;10.80;47.66;100826.81;5092853;28;20055;-58
2022/05/03 00:38:38;;;;;;;8.15;3.50;;;;;;;10.79;48.24;100825.09;5092824;28;20052;-58
2022/05/03 00:41:05;;;;;;;7.72;3.67;;;;;;;10.74;48.15;100826.00;5084558;28;20052;-58
2022/05/03 00:43:40;;;;;;;5.35;3.42;;;;;;;10.74;48.47;100828.59;5092250;28;20071;-58
2022/05/03 00:46:10;;;;;;;5.97;3.42;;;;;;;10.73;48.51;100826.88;5084849;28;20055;-58
2022/05/03 00:48:55;;;;;;;8.48;3.65;;;;;;;10.71;48.85;100828.59;5092538;28;20141;-57
2022/05/03 00:51:29;;;;;;;6.60;3.60;;;;;;;10.67;48.42;100820.88;5092617;28;20055;-58
2022/05/03 00:54:13;;;;;;;4.60;3.15;;;;;;;10.67;48.76;100821.72;5092546;28;20048;-58
2022/05/03 00:56:56;;;;;;;6.05;3.58;;;;;;;10.69;48.85;100829.50;5092954;28;20070;-58
2022/05/03 00:59:39;;;;;;;6.68;3.33;;;;;;;10.68;48.71;100820.84;5092473;28;20059;-58
2022/05/03 01:02:08;;;;;;;11.18;3.85;;;;;;;10.69;48.68;100825.16;5092852;28;20048;-58
2022/05/03 01:04:42;;;;;;;6.60;3.20;;;;;;;10.70;48.60;100821.69;5092476;28;20048;-59
2022/05/03 01:07:21;;;;;;;6.20;3.35;;;;;;;10.70;49.21;100824.28;5092311;28;20059;-58
2022/05/03 01:10:02;;;;;;;7.53;3.45;;;;;;;10.69;48.75;100819.13;5092397;28;20051;-57
2022/05/03 01:12:45;;;;;;;5.57;3.22;;;;;;;10.66;48.92;100819.16;5089677;28;20109;-58
2022/05/03 01:15:18;;;;;;;6.78;3.25;;;;;;;10.60;49.61;100814.88;5052180;28;20057;-58
2022/05/03 01:17:48;;;;;;;5.53;3.08;;;;;;;10.55;49.29;100811.44;5060848;28;20103;-58
2022/05/03 01:20:27;;;;;;;10.77;3.30;;;;;;;10.54;49.82;100817.50;5074959;28;20062;-59
2022/05/03 01:23:31;;;;;;;7.07;3.40;;;;;;;10.51;49.79;100814.94;5075591;28;20060;-58
2022/05/03 01:26:27;;;;;;;5.93;3.20;;;;;;;10.49;49.95;100806.31;5075853;28;20075;-58
2022/05/03 01:29:19;;;;;;;7.03;3.17;;;;;;;10.48;49.97;100814.09;5076010;28;20103;-58
2022/05/03 01:31:47;;;;;;;5.63;3.50;;;;;;;10.47;49.87;100821.00;5072462;28;20064;-58
2022/05/03 01:34:19;;;;;;;6.22;3.65;;;;;;;10.47;49.80;100813.25;5096153;28;20082;-57
2022/05/03 01:36:55;;;;;;;5.50;3.88;;;;;;;10.43;49.94;100811.53;5074061;28;20355;-55
2022/05/03 01:39:33;;;;;;;6.40;3.65;;;;;;;10.43;50.27;100811.53;5055510;28;20055;-57
2022/05/03 01:42:04;;;;;;;5.78;3.65;;;;;;;10.44;50.43;100813.25;5088315;28;20476;-58
2022/05/03 01:44:39;;;;;;;8.65;4.05;;;;;;;10.42;50.26;100809.81;5096078;28;20168;-57
2022/05/03 01:47:14;;;;;;;5.75;3.50;;;;;;;10.38;50.52;100806.34;5096034;28;20087;-58
2022/05/03 01:53:03;;;;;;;6.03;3.30;;;;;;;10.31;50.64;100801.22;5080359;28;20499;-58
2022/05/03 01:55:52;;;;;;;6.70;3.90;;;;;;;10.29;50.91;100798.66;5068290;28;20045;-58
2022/05/03 01:58:25;;;;;;;8.13;3.17;;;;;;;10.28;50.62;100796.06;5055427;28;20059;-58
2022/05/03 02:01:03;;;;;;;7.50;3.72;;;;;;;10.26;50.85;100790.88;5055346;28;20064;-58
2022/05/03 02:03:35;;;;;;;7.57;4.25;;;;;;;10.21;51.14;100791.78;5055366;28;20041;-58
2022/05/03 02:06:05;;;;;;;7.18;3.53;;;;;;;10.20;51.19;100787.44;5055216;28;20056;-58
2022/05/03 02:08:42;;;;;;;9.25;3.80;;;;;;;10.16;51.37;100785.75;5054736;28;20049;-57
2022/05/03 02:11:33;;;;;;;4.97;3.63;;;;;;;10.06;51.60;100783.22;5054928;28;20053;-58
2022/05/03 02:17:06;;;;;;;7.45;3.35;;;;;;;10.02;52.50;100781.50;5074800;28;20051;-58
2022/05/03 02:20:13;;;;;;;6.95;3.67;;;;;;;10.02;52.45;100794.47;5074545;28;20404;-58
2022/05/03 02:23:10;;;;;;;7.00;3.38;;;;;;;10.02;51.71;100786.69;5074107;28;20150;-57
2022/05/03 02:25:46;;;;;;;5.05;3.10;;;;;;;10.04;51.67;100797.91;5075084;28;20048;-58
2022/05/03 02:28:20;;;;;;;6.40;3.30;;;;;;;10.05;51.77;100793.56;5074775;28;20044;-57
2022/05/03 02:30:47;;;;;;;7.20;3.90;;;;;;;10.05;51.76;100794.44;5073675;28;20049;-58
2022/05/03 02:33:21;;;;;;;6.07;3.70;;;;;;;10.07;52.56;100789.25;5059771;28;20104;-58
2022/05/03 02:35:52;;;;;;;8.98;3.50;;;;;;;10.02;51.98;100789.28;5054715;28;20052;-57
2022/05/03 02:38:21;;;;;;;7.05;3.22;;;;;;;10.04;52.02;100790.13;5054402;28;20061;-57
2022/05/03 02:40:53;;;;;;;6.13;3.63;;;;;;;10.07;52.02;100792.69;5067022;28;20062;-57
2022/05/03 02:43:25;;;;;;;7.80;3.28;;;;;;;10.09;52.06;100801.31;5094385;28;20544;-58
2022/05/03 02:45:57;;;;;;;6.93;3.22;;;;;;;10.12;52.19;100798.72;5094310;28;20051;-57
2022/05/03 02:48:33;;;;;;;5.93;3.20;;;;;;;10.10;52.61;100797.88;5093978;28;20063;-57
2022/05/03 02:51:04;;;;;;;8.85;3.38;;;;;;;10.11;52.62;100794.41;5094217;28;20059;-58
2022/05/03 02:53:43;;;;;;;4.55;2.95;;;;;;;10.11;52.35;100788.38;5093663;28;20052;-58
2022/05/03 02:56:22;;;;;;;5.35;3.30;;;;;;;10.07;52.69;100795.28;5094094;28;20075;-58
2022/05/03 02:59:00;;;;;;;7.63;3.13;;;;;;;10.09;52.45;100801.31;5094077;28;20522;-58
2022/05/03 03:01:47;;;;;;;7.30;3.65;;;;;;;10.08;52.69;100794.41;5094511;28;20077;-57
2022/05/03 03:04:24;;;;;;;5.68;3.38;;;;;;;10.06;53.20;100785.81;5094727;28;20056;-57
2022/05/03 03:06:54;;;;;;;9.20;3.25;;;;;;;10.06;52.94;100790.97;5094678;28;20044;-58
2022/05/03 03:09:27;;;;;;;6.30;3.28;;;;;;;10.07;53.38;100797.88;5092671;28;20044;-58
2022/05/03 03:11:59;;;;;;;6.18;3.40;;;;;;;10.09;53.02;100788.38;5074430;28;20052;-58
2022/05/03 03:14:35;;;;;;;6.32;3.50;;;;;;;10.10;53.43;100794.41;5074189;28;20064;-58
2022/05/03 03:17:04;;;;;;;;;;;;;;;10.05;54.22;100796.16;5074804;28;20080;-56
2022/05/03 03:19:53;;;;;;;5.93;3.40;;;;;;;10.11;53.80;100798.72;5073776;28;20386;-58
2022/05/03 03:22:21;;;;;;;7.35;3.70;;;;;;;10.13;53.32;100803.03;5073953;28;20057;-58
2022/05/03 03:24:49;;;;;;;5.82;3.20;;;;;;;10.16;52.70;100803.88;5073800;28;20084;-57
2022/05/03 03:27:20;;;;;;;5.45;3.38;;;;;;;10.18;53.33;100794.38;5073687;28;20048;-55
2022/05/03 03:29:49;;;;;;;7.32;3.15;;;;;;;10.17;53.10;100797.81;5058564;28;20045;-58
2022/05/03 03:32:18;;;;;;;6.63;3.38;;;;;;;10.15;53.28;100795.25;5063612;28;20059;-58
2022/05/03 03:34:50;;;;;;;5.68;3.47;;;;;;;10.16;53.45;100796.97;5094087;28;20067;-58
2022/05/03 03:37:19;;;;;;;7.75;3.35;;;;;;;10.20;53.83;100796.13;5094145;28;20048;-58
2022/05/03 03:39:46;;;;;;;8.75;3.70;;;;;;;10.20;53.94;100797.81;5087147;28;20071;-58
2022/05/03 03:42:12;;;;;;;7.13;3.53;;;;;;;10.21;53.07;100794.38;5073467;28;20049;-57
2022/05/03 03:44:39;;;;;;;5.53;3.33;;;;;;;10.25;53.46;100790.91;5073808;28;20064;-57
2022/05/03 03:47:05;;;;;;;6.82;3.90;;;;;;;10.25;53.45;100793.50;5073524;28;20052;-57
2022/05/03 03:49:33;;;;;;;8.15;3.05;;;;;;;10.22;53.53;100789.19;5073508;28;20052;-57
2022/05/03 03:52:01;;;;;;;6.05;3.35;;;;;;;10.28;53.50;100789.16;5073496;28;20049;-55
2022/05/03 03:54:28;;;;;;;6.75;3.33;;;;;;;10.36;53.04;100778.72;5073436;28;20048;-55
2022/05/03 03:56:56;;;;;;;8.10;3.80;;;;;;;10.47;53.38;100782.13;5073001;28;20102;-58
2022/05/03 03:59:23;;;;;;;6.90;3.75;;;;;;;10.57;52.49;100786.38;5073120;28;20528;-58
2022/05/03 04:01:50;;;;;;;6.68;3.20;;;;;;;10.66;52.36;100788.91;5073454;28;20052;-58
2022/05/03 04:04:17;;;;;;;4.20;3.28;;;;;;;10.72;52.22;100794.03;5073475;28;20064;-56
2022/05/03 04:06:44;;;;;;;6.22;3.17;;;;;;;10.78;52.65;100789.66;5072911;28;20103;-57
2022/05/03 04:09:12;;;;;;;6.78;3.50;;;;;;;10.86;51.90;100785.28;5073363;28;20053;-57
2022/05/03 04:11:45;;;;;;;6.13;3.30;;;;;;;10.92;51.82;100790.41;5073066;28;20052;-58
2022/05/03 04:14:12;;;;;;;5.78;2.92;;;;;;;10.93;52.32;100786.97;5073063;28;20044;-58
2022/05/03 04:16:38;;;;;;;6.05;3.38;;;;;;;10.98;52.12;100790.38;5073211;28;20063;-56
2022/05/03 04:19:05;;;;;;;6.55;3.10;;;;;;;11.07;51.74;100790.28;5073289;28;20067;-56
2022/05/03 04:21:32;;;;;;;9.15;4.07;;;;;;;11.13;51.68;100784.19;5073145;28;20048;-58
2022/05/03 04:23:58;;;;;;;6.80;3.35;;;;;;;11.19;51.68;100790.16;5072589;28;20068;-58
2022/05/03 04:26:27;;;;;;;5.68;3.13;;;;;;;11.29;51.33;100796.97;5055154;28;20045;-59
2022/05/03 04:28:56;;;;;;;7.03;3.25;;;;;;;11.41;50.72;100793.38;5053132;28;20057;-57
2022/05/03 04:31:25;;;;;;;7.55;3.38;;;;;;;11.58;50.45;100798.41;5052754;28;20049;-57
2022/05/03 04:33:51;;;;;;;8.82;3.90;;;;;;;11.70;50.35;100795.66;5090318;28;20055;-58
2022/05/03 04:36:18;;;;;;;6.80;3.08;;;;;;;11.85;49.88;100802.44;5093194;28;20048;-58
2022/05/03 04:38:44;;;;;;;6.13;2.90;;;;;;;12.02;49.86;100810.03;5093241;28;20074;-57
2022/05/03 04:41:11;;;;;;;4.22;2.95;;;;;;;12.19;49.64;100802.88;5085321;28;20052;-58
2022/05/03 04:43:38;;;;;;;4.78;2.75;;;;;;;12.29;49.39;100804.47;5093013;28;20051;-58
2022/05/03 04:46:05;;;;;;;4.82;2.80;;;;;;;12.36;48.98;100800.88;5092703;28;20055;-58
2022/05/03 04:48:31;;;;;;;5.88;2.60;;;;;;;12.43;48.82;100807.72;5092911;28;20059;-57
2022/05/03 04:50:58;;;;;;;6.20;2.75;;;;;;;12.45;48.68;100805.09;5092781;28;20063;-58
2022/05/03 04:53:24;;;;;;;7.30;2.67;;;;;;;12.45;48.38;100805.94;5092664;28;20048;-55
2022/05/03 04:55:51;;;;;;;8.75;3.00;;;;;;;12.45;48.51;100805.94;5096711;28;20060;-58
2022/05/03 04:58:17;;;;;;;7.13;2.80;;;;;;;12.43;48.59;100799.06;5096915;28;20048;-58
2022/05/03 05:00:45;;;;;;;4.75;2.80;;;;;;;12.40;48.65;100802.56;5096978;28;20048;-58
2022/05/03 05:03:13;;;;;;;4.78;3.17;;;;;;;12.38;48.59;100804.31;5083792;28;20059;-58
2022/05/03 05:05:39;;;;;;;6.80;3.42;;;;;;;12.32;49.06;100804.41;5076010;28;20062;-57
2022/05/03 05:08:07;;;;;;;5.57;2.88;;;;;;;12.32;49.16;100805.28;5076512;28;20067;-57
2022/05/03 05:10:35;;;;;;;6.40;2.55;;;;;;;12.42;49.01;100799.94;5076300;28;20386;-58
2022/05/03 05:13:02;;;;;;;5.75;2.83;;;;;;;12.59;48.82;100809.22;5076457;28;20071;-58
2022/05/03 05:15:29;;;;;;;6.43;2.90;;;;;;;12.74;48.78;100808.13;5076009;28;20049;-58
2022/05/03 05:17:58;;;;;;;6.07;3.00;;;;;;;12.86;48.36;100796.66;5076203;28;20071;-57
2022/05/03 05:20:25;;;;;;;5.95;3.40;;;;;;;12.95;48.54;100796.50;5076141;28;20055;-57
2022/05/03 05:22:52;;;;;;;4.95;2.67;;;;;;;13.02;48.33;100792.94;5046582;28;20065;-57
2022/05/03 05:25:19;;;;;;;6.05;3.05;;;;;;;13.06;48.40;100792.00;5036326;28;20064;-57
2022/05/03 05:27:45;;;;;;;3.70;2.60;;;;;;;13.13;48.20;100796.19;5036260;28;20075;-56
2022/05/03 05:30:13;;;;;;;4.57;2.80;;;;;;;13.17;48.37;100803.09;5036314;28;20060;-56
2022/05/03 05:32:39;;;;;;;7.32;3.20;;;;;;;13.22;48.35;100806.47;5052158;28;20044;-58
2022/05/03 05:35:08;;;;;;;8.05;3.22;;;;;;;13.31;48.35;100809.78;5075986;28;20056;-57
2022/05/03 05:37:34;;;;;;;5.32;3.05;;;;;;;13.32;48.63;100801.09;5075957;28;20114;-58
2022/05/03 05:40:01;;;;;;;6.22;3.25;;;;;;;13.34;48.37;100804.53;5068587;28;20053;-58
2022/05/03 05:42:27;;;;;;;5.25;3.60;;;;;;;13.32;48.51;100807.16;5055817;28;20049;-58
2022/05/03 05:44:54;;;;;;;4.55;3.03;;;;;;;13.32;48.60;100814.13;5055845;28;20045;-58
2022/05/03 05:47:20;;;;;;;4.82;3.15;;;;;;;13.33;48.69;100808.03;5036511;28;20481;-56
2022/05/03 05:49:47;;;;;;;6.10;3.20;;;;;;;13.35;48.77;100806.25;5036141;28;20060;-58
2022/05/03 05:54:58;;;;;;;6.85;3.60;;;;;;;13.38;48.90;100806.19;5035659;28;20437;-57
2022/05/03 05:57:25;;;;;;;6.55;3.40;;;;;;;13.45;48.69;100807.78;5045741;28;20049;-57
2022/05/03 05:59:51;;;;;;;4.72;3.05;;;;;;;13.49;48.75;100809.44;5043868;28;20057;-55
2022/05/03 06:02:18;;;;;;;6.05;3.58;;;;;;;13.53;48.89;100812.00;5045815;28;20049;-58
2022/05/03 06:04:44;;;;;;;6.32;3.83;;;;;;;13.53;48.85;100808.53;5040954;28;20052;-59
2022/05/03 06:07:10;;;;;;;5.57;3.17;;;;;;;13.54;49.08;100812.84;5049209;28;20053;-57
2022/05/03 06:09:38;;;;;;;4.70;3.30;;;;;;;13.55;49.08;100814.56;5052321;28;20057;-60
2022/05/03 06:12:05;;;;;;;7.88;4.00;;;;;;;13.54;49.24;100818.06;5050198;28;20052;-60
2022/05/03 06:14:32;;;;;;;5.93;3.13;;;;;;;13.52;49.34;100814.59;5050636;28;20136;-61
2022/05/03 06:16:58;;;;;;;9.65;3.83;;;;;;;13.54;49.70;100816.31;5047584;28;20064;-61
2022/05/03 06:19:25;;;;;;;7.13;3.40;;;;;;;13.57;49.69;100823.19;5049896;28;20064;-61
2022/05/03 06:21:51;;;;;;;5.20;3.45;;;;;;;13.59;49.75;100816.22;5055188;28;20053;-61
2022/05/03 06:24:18;;;;;;;7.22;3.30;;;;;;;13.58;50.00;100824.91;5091987;28;20048;-60
2022/05/03 06:26:46;;;;;;;8.07;3.47;;;;;;;13.61;49.83;100819.66;5079144;28;20063;-61
2022/05/03 06:29:14;;;;;;;4.70;3.13;;;;;;;13.64;50.30;100823.94;5086521;28;20465;-61
2022/05/03 06:31:42;;;;;;;7.03;3.13;;;;;;;13.62;50.36;100830.94;5078651;28;20139;-59
2022/05/03 06:34:09;;;;;;;5.78;2.97;;;;;;;13.60;50.50;100833.56;5086661;28;20044;-60
2022/05/03 06:36:36;;;;;;;4.47;3.08;;;;;;;13.60;50.59;100830.97;5078120;28;20052;-61
2022/05/03 06:39:03;;;;;;;5.32;3.25;;;;;;;13.55;50.48;100840.59;5088038;28;20056;-58
2022/05/03 06:41:29;;;;;;;7.72;3.15;;;;;;;13.53;50.77;100843.25;5069027;28;20060;-58
2022/05/03 06:43:58;;;;;;;7.63;3.10;;;;;;;13.51;50.59;100838.91;5088670;28;20059;-58
2022/05/03 06:46:25;;;;;;;7.18;3.35;;;;;;;13.50;50.70;100843.28;5078005;28;20059;-59
2022/05/03 06:48:51;;;;;;;8.73;2.90;;;;;;;13.49;50.76;100845.91;5089766;28;20056;-60
2022/05/03 06:51:18;;;;;;;6.78;3.20;;;;;;;13.50;50.83;100856.28;5083589;28;20055;-60
2022/05/03 06:53:45;;;;;;;12.15;3.35;;;;;;;13.51;50.92;100849.34;5073367;28;20040;-55
2022/05/03 06:56:12;;;;;;;4.50;2.80;;;;;;;13.54;50.91;100855.38;5064798;28;20060;-59
2022/05/03 06:58:39;;;;;;;9.15;3.70;;;;;;;13.58;50.83;100856.19;5070901;28;20047;-59
2022/05/03 07:01:10;;;;;;;6.00;3.05;;;;;;;13.60;50.90;100859.59;5065564;28;20044;-61
2022/05/03 07:03:37;;;;;;;5.65;3.00;;;;;;;13.62;50.87;100860.44;5063813;28;20052;-59
2022/05/03 07:06:04;;;;;;;7.93;3.85;;;;;;;13.65;50.97;100865.59;5089540;28;20052;-59
2022/05/03 07:08:30;;;;;;;6.53;3.70;;;;;;;13.67;51.13;100862.94;5077628;28;20052;-60
2022/05/03 07:10:57;;;;;;;5.68;3.50;;;;;;;13.70;51.31;100868.09;5088553;28;20059;-59
2022/05/03 07:13:24;;;;;;;6.13;3.17;;;;;;;13.72;51.49;100875.00;5068269;28;20060;-60
2022/05/03 07:15:51;;;;;;;7.55;3.90;;;;;;;13.77;51.51;100864.50;5087512;28;20060;-60
2022/05/03 07:23:48;;;;;;;7.38;4.43;;;;;;;13.84;51.95;100874.75;5077481;28;20072;-57
2022/05/03 07:26:14;;;;;;;7.82;4.45;;;;;;;13.85;52.18;100876.47;5077211;28;20063;-57
2022/05/03 07:28:41;;;;;;;7.95;4.18;;;;;;;13.94;52.31;100879.78;5060103;28;20424;-58
2022/05/03 07:31:08;;;;;;;8.95;4.10;;;;;;;14.04;52.19;100878.72;5086187;28;20052;-57
2022/05/03 07:33:36;;;;;;;7.25;4.68;;;;;;;14.15;52.08;100884.59;5074296;28;20444;-57
2022/05/03 07:36:03;;;;;;;7.82;4.07;;;;;;;14.22;51.83;100886.19;5088993;28;20074;-57
2022/05/03 07:38:29;;;;;;;10.32;4.53;;;;;;;14.28;52.32;100883.44;5077012;28;20044;-57
2022/05/03 07:40:57;;;;;;;9.35;4.22;;;;;;;14.40;52.14;100891.00;5079641;28;20048;-57
2022/05/03 07:43:23;;;;;;;7.05;4.32;;;;;;;14.50;52.15;100902.97;5083136;28;20071;-56
2022/05/03 07:45:50;;;;;;;7.70;4.18;;;;;;;14.61;51.75;100900.16;5080292;28;20047;-60
2022/05/03 07:48:16;;;;;;;7.93;4.68;;;;;;;14.73;51.78;100904.25;5082508;28;20080;-59
2022/05/03 07:50:45;;;;;;;9.02;4.70;;;;;;;14.75;51.73;100907.66;5074239;28;20055;-59
2022/05/03 07:53:12;;;;;;;8.80;4.45;;;;;;;14.76;51.86;100904.16;5080960;28;20491;-57
2022/05/03 07:55:38;;;;;;;8.00;5.00;;;;;;;14.79;51.87;100914.53;5075845;28;20481;-57
2022/05/03 07:58:05;;;;;;;14.60;5.72;;;;;;;14.80;51.82;100926.69;5066207;28;20052;-58
2022/05/03 08:00:32;;;;;;;7.25;4.50;;;;;;;14.78;51.96;100918.91;5087676;28;20048;-59
2022/05/03 08:02:58;;;;;;;10.05;5.00;;;;;;;14.77;51.67;100927.63;5087058;28;20102;-58
2022/05/03 08:05:25;;;;;;;8.00;4.72;;;;;;;14.81;52.06;100929.25;5082945;28;20048;-57
2022/05/03 08:07:53;;;;;;;6.80;4.15;;;;;;;14.86;51.94;100934.38;5079783;28;20049;-58
2022/05/03 08:10:19;;;;;;;7.20;4.38;;;;;;;14.95;52.14;100938.53;5089471;28;20077;-57
2022/05/03 08:12:50;;;;;;;13.88;8.77;;;;;;;15.03;51.91;100933.97;5069986;28;20041;-58
2022/05/03 08:15:17;;;;;;;14.52;8.50;;;;;;;15.08;52.11;100932.13;5070068;28;20473;-57
2022/05/03 08:17:44;;;;;;;11.95;7.45;;;;;;;15.11;52.03;100940.75;5080451;28;20063;-56
2022/05/03 08:20:11;;;;;;;7.65;5.35;;;;;;;15.13;51.58;100931.16;5072508;28;20370;-58
2022/05/03 08:22:37;;;;;;;21.08;11.93;;;;;;;15.22;51.85;100939.66;5088851;28;20056;-60
2022/05/03 08:25:06;;;;;;;11.02;6.43;;;;;;;15.28;51.64;100947.34;5071621;28;20048;-60
2022/05/03 08:27:36;;;;;;;15.40;9.25;;;;;;;15.34;51.30;100944.56;5082269;28;20057;-60
2022/05/03 08:30:02;;;;;;;7.72;5.30;;;;;;;15.36;51.45;100948.00;5086634;28;20399;-59
2022/05/03 08:32:29;;;;;;;10.35;5.65;;;;;;;15.39;51.41;100947.91;5073726;28;20044;-59
2022/05/03 08:34:55;;;;;;;16.08;5.85;;;;;;;15.44;51.50;100956.50;5078157;28;20044;-59
2022/05/03 08:42:52;;;;;;;14.15;6.88;;;;;;;15.53;51.05;100961.50;5063023;28;20059;-59
2022/05/03 08:45:20;;;;;;;11.15;6.40;;;;;;;15.58;51.19;100959.66;5083940;28;20052;-58
2022/05/03 08:47:48;;;;;;;12.35;7.20;;;;;;;15.61;50.97;100962.22;5075454;28;20041;-60
2022/05/03 08:50:19;;;;;;;11.60;5.65;;;;;;;15.60;50.63;100965.69;5088087;28;20387;-59
2022/05/03 08:52:48;;;;;;;12.70;6.40;;;;;;;15.58;50.74;100970.09;5060923;28;20051;-59
2022/05/03 08:55:18;;;;;;;10.10;6.28;;;;;;;15.58;50.90;100974.47;5074379;28;20629;-58
2022/05/03 08:57:45;;;;;;;7.30;4.95;;;;;;;15.59;50.58;100976.19;5074175;28;20048;-59
2022/05/03 09:00:14;;;;;;;11.20;6.20;;;;;;;15.60;50.74;100968.31;5086861;28;20048;-58
2022/05/03 09:02:43;;;;;;;10.35;4.97;;;;;;;15.63;50.63;100973.50;5092251;28;20146;-59
2022/05/03 09:05:11;;;;;;;8.82;4.28;;;;;;;15.65;50.37;100976.91;5084515;28;20055;-61
2022/05/03 09:07:38;;;;;;;12.50;5.95;;;;;;;15.71;50.55;100979.38;5077106;28;20075;-59
2022/05/03 09:10:19;;;;;;;10.57;6.70;;;;;;;15.72;50.65;100975.88;5068002;28;20095;-57
2022/05/03 09:12:46;;;;;;;10.35;4.78;;;;;;;15.73;50.77;100980.19;5053327;28;20041;-61
2022/05/03 09:15:13;;;;;;;7.65;4.88;;;;;;;15.77;50.23;100981.81;5067669;28;20040;-60
2022/05/03 09:17:41;;;;;;;8.35;5.05;;;;;;;15.78;50.43;100978.31;5079726;28;20051;-62
2022/05/03 09:25:42;;;;;;;6.10;3.03;;;;;;;15.78;50.27;100978.31;5058901;28;20052;-61
2022/05/03 09:28:09;;;;;;;4.22;2.28;;;;;;;15.75;50.11;100973.16;5061045;28;20132;-59
2022/05/03 09:30:35;;;;;;;5.00;2.97;;;;;;;15.72;50.33;100981.09;5054556;28;20044;-59
2022/05/03 09:33:02;;;;;;;4.90;3.30;;;;;;;15.70;50.42;100987.25;5055939;28;20458;-60
2022/05/03 09:35:33;;;;;;;6.00;3.30;;;;;;;15.69;50.27;100983.78;5062115;28;20049;-60
2022/05/03 09:38:01;;;;;;;6.03;3.33;;;;;;;15.72;50.55;100985.47;5056023;28;20057;-59
2022/05/03 09:40:29;;;;;;;6.18;3.35;;;;;;;15.81;50.87;100984.34;5047444;28;20059;-60
2022/05/03 09:42:57;;;;;;;5.72;3.30;;;;;;;15.91;50.62;100984.06;5061135;28;20052;-60
2022/05/03 09:45:25;;;;;;;6.68;3.88;;;;;;;16.01;50.66;100980.31;5054706;28;20102;-61
2022/05/03 09:47:53;;;;;;;4.53;3.20;;;;;;;16.13;50.33;100979.16;5061617;28;20072;-61
2022/05/03 09:50:39;;;;;;;4.88;3.35;;;;;;;16.27;50.09;100976.16;5052642;28;20049;-62
2022/05/03 09:53:10;;;;;;;5.43;3.67;;;;;;;16.35;50.01;100977.66;5047260;28;20114;-62
2022/05/03 09:55:39;;;;;;;6.47;4.65;;;;;;;16.41;49.71;100982.69;5043838;28;20037;-61
2022/05/03 09:58:09;;;;;;;12.23;6.47;;;;;;;16.45;49.23;100980.00;5065794;28;20053;-59
2022/05/03 10:00:37;;;;;;;12.52;6.85;;;;;;;16.48;49.43;100985.13;5058387;28;20040;-58
2022/05/03 10:03:05;;;;;;;9.15;4.43;;;;;;;16.50;49.36;100981.56;5068239;28;20065;-59
2022/05/03 10:05:32;;;;;;;5.60;3.83;;;;;;;16.51;49.29;100979.81;5057806;28;20381;-60
2022/05/03 10:07:58;;;;;;;8.70;5.50;;;;;;;16.52;48.95;100986.75;5052795;28;20041;-60
2022/05/03 10:10:26;;;;;;;9.35;6.50;;;;;;;16.51;49.87;100985.06;5071401;28;20095;-61
2022/05/03 10:12:54;;;;;;;9.93;5.95;;;;;;;16.50;50.08;100999.03;5050452;28;20447;-60
2022/05/03 10:21:00;;;;;;;13.10;8.52;;;;;;;16.16;50.60;100994.75;5045749;28;20052;-60
2022/05/03 10:23:30;;;;;;;21.33;6.40;;;;;;;16.13;51.82;101004.41;5074830;28;20060;-59
2022/05/03 10:25:59;;;;;;;8.95;5.50;;;;;;;16.03;52.77;101016.88;5077493;28;20105;-61
2022/05/03 10:28:26;;;;;;;14.60;8.88;;;;;;;15.92;53.60;101013.69;5088749;28;20051;-59
2022/05/03 10:31:13;;;;;;;10.18;6.53;;;;;;;15.81;54.82;101013.13;5079403;28;20477;-59
2022/05/03 10:33:40;;;;;;;9.57;6.25;;;;;;;15.71;54.51;101017.72;5075375;28;20132;-60
2022/05/03 10:36:41;;;;;;;14.45;6.70;;;;;;;15.59;57.73;101023.22;5089881;28;20468;-60
2022/05/03 10:39:20;;;;;;;8.77;6.28;;;;;;;15.45;58.40;101021.78;4999856;28;20081;-60
2022/05/03 10:41:53;;;;;;;7.57;6.10;;;;;;;15.38;58.37;101028.03;5053764;28;20048;-60
2022/05/03 10:44:40;;;;;;;12.27;7.68;;;;;;;15.29;59.33;101015.19;5091392;28;20056;-60
2022/05/03 10:47:08;;;;;;;8.00;5.18;;;;;;;15.23;59.11;101027.53;5068887;28;20051;-59
2022/05/03 10:49:34;;;;;;;6.60;5.20;;;;;;;15.18;60.11;101022.41;5083277;28;20049;-60
2022/05/03 10:52:15;;;;;;;10.23;5.90;;;;;;;15.15;59.90;101028.56;5088383;28;20048;-60
2022/05/03 10:55:04;;;;;;;10.00;6.22;;;;;;;15.17;61.41;101025.06;5061975;28;20050;-60
2022/05/03 10:57:31;;;;;;;10.95;6.57;;;;;;;15.13;61.06;101027.75;5083514;28;20041;-59
2022/05/03 10:59:57;;;;;;;7.75;5.20;;;;;;;15.10;61.11;101020.00;5088423;28;20075;-60
2022/05/03 11:02:25;;;;;;;6.10;4.88;;;;;;;15.12;60.85;101023.41;5077230;28;20052;-59
2022/05/03 11:05:15;;;;;;;6.65;4.70;;;;;;;15.14;61.81;101016.41;5089221;28;20044;-60
2022/05/03 11:07:42;;;;;;;7.68;4.80;;;;;;;15.14;61.01;101021.63;5077041;28;20358;-60
2022/05/03 11:10:40;;;;;;;5.30;3.58;;;;;;;15.13;60.50;101021.66;5082160;28;20052;-61
2022/05/03 11:13:37;;;;;;;7.30;4.85;;;;;;;15.07;60.84;101020.03;5073894;28;20049;-59
2022/05/03 11:16:24;;;;;;;5.63;3.80;;;;;;;15.09;60.43;101023.50;5070209;28;20052;-58
2022/05/03 11:18:52;;;;;;;7.07;4.38;;;;;;;15.06;60.02;101017.44;5069538;28;20049;-59
2022/05/03 11:21:19;;;;;;;7.20;3.95;;;;;;;15.05;59.80;101016.59;5067675;28;20056;-59
2022/05/03 11:23:50;;;;;;;6.90;4.18;;;;;;;15.05;60.19;101015.72;5043633;28;20053;-60
2022/05/03 11:26:17;;;;;;;6.03;4.03;;;;;;;15.06;60.18;101018.31;5066546;28;20669;-60
2022/05/03 11:28:46;;;;;;;5.50;3.60;;;;;;;15.04;59.84;101009.66;5057893;28;20049;-60
2022/05/03 11:31:13;;;;;;;4.90;3.28;;;;;;;14.99;59.73;101016.72;5063371;28;20059;-59
2022/05/03 11:33:49;;;;;;;45.28;27.88;;;;;;;14.98;59.33;101016.75;5054674;28;20049;-61
2022/05/03 11:36:17;;;;;;;8.30;5.50;;;;;;;14.94;59.50;101018.59;5062875;28;20068;-62
2022/05/03 11:38:44;;;;;;;20.25;14.95;;;;;;;14.94;59.58;101029.03;5048382;28;20409;-60
2022/05/03 11:41:10;;;;;;;7.30;5.07;;;;;;;14.95;59.12;101030.75;5058016;28;20060;-61
2022/05/03 11:43:37;;;;;;;8.52;5.18;;;;;;;14.95;59.35;101025.53;5064587;28;20059;-61
2022/05/03 11:46:04;;;;;;;6.00;3.88;;;;;;;14.92;58.78;101036.03;5058084;28;20060;-60
2022/05/03 11:48:31;;;;;;;6.15;3.90;;;;;;;14.95;58.69;101029.88;5069204;28;20442;-60
2022/05/03 11:56:24;;;;;;;5.30;3.50;;;;;;;15.08;58.27;101037.41;5025016;28;20064;-60
2022/05/03 11:58:51;;;;;;;6.65;3.58;;;;;;;15.10;58.09;101035.66;5057722;28;20055;-61
2022/05/03 12:01:18;;;;;;;4.13;2.75;;;;;;;15.17;57.69;101038.13;5064228;28;20052;-60
2022/05/03 12:03:46;;;;;;;4.15;2.90;;;;;;;15.23;57.22;101030.16;5062438;28;20053;-61
2022/05/03 12:06:13;;;;;;;4.60;3.10;;;;;;;15.30;57.10;101031.72;5052655;28;20084;-61
2022/05/03 12:08:39;;;;;;;4.93;3.20;;;;;;;15.40;56.77;101033.22;5042901;28;20496;-61
2022/05/03 12:11:17;;;;;;;5.38;3.63;;;;;;;15.51;56.02;101025.97;5069389;28;20041;-61
2022/05/03 12:13:44;;;;;;;5.15;3.03;;;;;;;15.60;55.76;101033.63;5041206;28;20407;-59
2022/05/03 12:16:16;;;;;;;3.65;2.22;;;;;;;15.70;55.05;101027.31;5064335;28;20454;-62